sensor_id;sensor_type;location;lat;lon;timestamp;P1;durP1;ratioP1;P2;durP2;ratioP2
15679;SDS011;15488;48.114;11.532;2022-09-23T00:01:03;4.63;;;3.60;;
15679;SDS011;15488;48.114;11.532;2022-09-23T00:03:33;5.07;;;3.80;;
15679;SDS011;15488;48.114;11.532;2022-09-23T00:06:03;6.33;;;3.80;;
15679;SDS011;15488;48.114;11.532;2022-09-23T00:08:33;4.67;;;4.00;;
15679;SDS011;15488;48.114;11.532;2022-09-23T00:11:02;4.00;;;3.60;;
15679;SDS011;15488;48.114;11.532;2022-09-23T00:13:31;4.30;;;3.50;;
15679;SDS011;15488;48.114;11.532;2022-09-23T00:16:00;4.20;;;3.57;;
15679;SDS011;15488;48.114;11.532;2022-09-23T00:18:29;4.97;;;3.80;;
15679;SDS011;15488;48.114;11.532;2022-09-23T00:21:00;4.23;;;3.83;;
15679;SDS011;15488;48.114;11.532;2022-09-23T00:23:29;5.30;;;3.63;;
15679;SDS011;15488;48.114;11.532;2022-09-23T00:25:59;4.77;;;3.87;;
15679;SDS011;15488;48.114;11.532;2022-09-23T00:28:27;4.20;;;3.80;;
15679;SDS011;15488;48.114;11.532;2022-09-23T00:30:55;5.80;;;3.83;;
15679;SDS011;15488;48.114;11.532;2022-09-23T00:33:22;5.60;;;4.00;;
15679;SDS011;15488;48.114;11.532;2022-09-23T00:35:50;3.93;;;3.53;;
15679;SDS011;15488;48.114;11.532;2022-09-23T00:38:23;4.33;;;3.63;;
15679;SDS011;15488;48.114;11.532;2022-09-23T00:40:50;4.00;;;3.60;;
15679;SDS011;15488;48.114;11.532;2022-09-23T00:43:19;4.73;;;3.60;;
15679;SDS011;15488;48.114;11.532;2022-09-23T00:46:01;3.93;;;3.47;;
15679;SDS011;15488;48.114;11.532;2022-09-23T00:48:29;4.47;;;3.63;;
15679;SDS011;15488;48.114;11.532;2022-09-23T00:50:56;4.20;;;3.63;;
15679;SDS011;15488;48.114;11.532;2022-09-23T00:53:24;3.97;;;3.50;;
15679;SDS011;15488;48.114;11.532;2022-09-23T00:55:52;3.77;;;3.30;;
15679;SDS011;15488;48.114;11.532;2022-09-23T00:58:26;4.20;;;3.80;;
15679;SDS011;15488;48.114;11.532;2022-09-23T01:01:01;3.87;;;3.53;;
15679;SDS011;15488;48.114;11.532;2022-09-23T01:03:29;4.53;;;3.87;;
15679;SDS011;15488;48.114;11.532;2022-09-23T01:05:57;4.13;;;3.53;;
15679;SDS011;15488;48.114;11.532;2022-09-23T01:08:25;4.00;;;3.60;;
15679;SDS011;15488;48.114;11.532;2022-09-23T01:10:57;3.90;;;3.40;;
15679;SDS011;15488;48.114;11.532;2022-09-23T01:13:34;4.10;;;3.60;;
15679;SDS011;15488;48.114;11.532;2022-09-23T01:16:10;5.10;;;3.77;;
15679;SDS011;15488;48.114;11.532;2022-09-23T01:18:44;3.90;;;3.50;;
15679;SDS011;15488;48.114;11.532;2022-09-23T01:21:22;4.73;;;3.40;;
15679;SDS011;15488;48.114;11.532;2022-09-23T01:24:12;4.07;;;3.63;;
15679;SDS011;15488;48.114;11.532;2022-09-23T01:27:00;3.87;;;3.43;;
15679;SDS011;15488;48.114;11.532;2022-09-23T01:32:49;3.57;;;3.27;;
15679;SDS011;15488;48.114;11.532;2022-09-23T01:35:38;3.97;;;3.50;;
15679;SDS011;15488;48.114;11.532;2022-09-23T01:38:22;4.17;;;3.57;;
15679;SDS011;15488;48.114;11.532;2022-09-23T01:41:01;5.23;;;3.23;;
15679;SDS011;15488;48.114;11.532;2022-09-23T01:43:35;3.90;;;3.50;;
15679;SDS011;15488;48.114;11.532;2022-09-23T01:46:08;5.00;;;3.27;;
15679;SDS011;15488;48.114;11.532;2022-09-23T01:48:45;3.50;;;3.07;;
15679;SDS011;15488;48.114;11.532;2022-09-23T01:51:19;3.83;;;3.43;;
15679;SDS011;15488;48.114;11.532;2022-09-23T01:53:52;4.93;;;3.83;;
15679;SDS011;15488;48.114;11.532;2022-09-23T01:56:29;3.80;;;3.30;;
15679;SDS011;15488;48.114;11.532;2022-09-23T01:59:00;4.50;;;3.67;;
15679;SDS011;15488;48.114;11.532;2022-09-23T02:01:37;4.53;;;3.40;;
15679;SDS011;15488;48.114;11.532;2022-09-23T02:04:11;4.00;;;3.60;;
15679;SDS011;15488;48.114;11.532;2022-09-23T02:06:42;3.80;;;3.40;;
15679;SDS011;15488;48.114;11.532;2022-09-23T02:09:15;3.50;;;3.17;;
15679;SDS011;15488;48.114;11.532;2022-09-23T02:11:48;4.23;;;3.23;;
15679;SDS011;15488;48.114;11.532;2022-09-23T02:14:20;3.60;;;3.17;;
15679;SDS011;15488;48.114;11.532;2022-09-23T02:16:50;5.23;;;3.63;;
15679;SDS011;15488;48.114;11.532;2022-09-23T02:19:23;5.07;;;3.40;;
15679;SDS011;15488;48.114;11.532;2022-09-23T02:21:57;4.53;;;3.50;;
15679;SDS011;15488;48.114;11.532;2022-09-23T02:24:28;4.10;;;3.40;;
15679;SDS011;15488;48.114;11.532;2022-09-23T02:27:02;4.93;;;3.40;;
15679;SDS011;15488;48.114;11.532;2022-09-23T02:29:38;3.97;;;3.50;;
15679;SDS011;15488;48.114;11.532;2022-09-23T02:32:12;3.90;;;3.43;;
15679;SDS011;15488;48.114;11.532;2022-09-23T02:34:45;4.03;;;3.40;;
15679;SDS011;15488;48.114;11.532;2022-09-23T02:37:22;3.30;;;3.00;;
15679;SDS011;15488;48.114;11.532;2022-09-23T02:39:58;3.80;;;3.13;;
15679;SDS011;15488;48.114;11.532;2022-09-23T02:42:32;3.57;;;2.90;;
15679;SDS011;15488;48.114;11.532;2022-09-23T02:45:07;3.30;;;2.90;;
15679;SDS011;15488;48.114;11.532;2022-09-23T02:47:35;4.53;;;3.30;;
15679;SDS011;15488;48.114;11.532;2022-09-23T02:50:07;3.70;;;3.17;;
15679;SDS011;15488;48.114;11.532;2022-09-23T02:52:35;3.40;;;2.93;;
15679;SDS011;15488;48.114;11.532;2022-09-23T02:55:03;3.23;;;2.90;;
15679;SDS011;15488;48.114;11.532;2022-09-23T02:57:31;3.80;;;2.90;;
15679;SDS011;15488;48.114;11.532;2022-09-23T02:59:59;4.00;;;3.13;;
15679;SDS011;15488;48.114;11.532;2022-09-23T03:02:32;3.80;;;2.70;;
15679;SDS011;15488;48.114;11.532;2022-09-23T03:05:23;2.80;;;2.50;;
15679;SDS011;15488;48.114;11.532;2022-09-23T03:07:58;3.73;;;2.70;;
15679;SDS011;15488;48.114;11.532;2022-09-23T03:10:38;2.83;;;2.50;;
15679;SDS011;15488;48.114;11.532;2022-09-23T03:13:15;3.33;;;2.63;;
15679;SDS011;15488;48.114;11.532;2022-09-23T03:15:48;2.73;;;2.43;;
15679;SDS011;15488;48.114;11.532;2022-09-23T03:18:22;2.87;;;2.57;;
15679;SDS011;15488;48.114;11.532;2022-09-23T03:21:02;2.67;;;2.47;;
15679;SDS011;15488;48.114;11.532;2022-09-23T03:23:32;2.73;;;2.40;;
15679;SDS011;15488;48.114;11.532;2022-09-23T03:26:02;2.80;;;2.40;;
15679;SDS011;15488;48.114;11.532;2022-09-23T03:28:34;3.17;;;2.60;;
15679;SDS011;15488;48.114;11.532;2022-09-23T03:31:03;3.07;;;2.73;;
15679;SDS011;15488;48.114;11.532;2022-09-23T03:33:32;3.43;;;2.43;;
15679;SDS011;15488;48.114;11.532;2022-09-23T03:36:03;3.57;;;2.70;;
15679;SDS011;15488;48.114;11.532;2022-09-23T03:38:50;3.30;;;2.63;;
15679;SDS011;15488;48.114;11.532;2022-09-23T03:41:26;3.60;;;2.57;;
15679;SDS011;15488;48.114;11.532;2022-09-23T03:43:58;3.20;;;2.50;;
15679;SDS011;15488;48.114;11.532;2022-09-23T03:46:27;3.20;;;2.67;;
15679;SDS011;15488;48.114;11.532;2022-09-23T03:49:01;2.63;;;2.43;;
15679;SDS011;15488;48.114;11.532;2022-09-23T03:51:40;3.27;;;2.70;;
15679;SDS011;15488;48.114;11.532;2022-09-23T03:54:07;2.90;;;2.60;;
15679;SDS011;15488;48.114;11.532;2022-09-23T03:56:35;3.73;;;2.70;;
15679;SDS011;15488;48.114;11.532;2022-09-23T03:59:02;3.03;;;2.50;;
15679;SDS011;15488;48.114;11.532;2022-09-23T04:01:30;3.03;;;2.63;;
15679;SDS011;15488;48.114;11.532;2022-09-23T04:03:57;3.10;;;2.70;;
15679;SDS011;15488;48.114;11.532;2022-09-23T04:06:25;2.97;;;2.50;;
15679;SDS011;15488;48.114;11.532;2022-09-23T04:08:53;3.13;;;2.40;;
15679;SDS011;15488;48.114;11.532;2022-09-23T04:11:22;3.63;;;2.67;;
15679;SDS011;15488;48.114;11.532;2022-09-23T04:13:49;2.83;;;2.53;;
15679;SDS011;15488;48.114;11.532;2022-09-23T04:16:17;3.07;;;2.67;;
15679;SDS011;15488;48.114;11.532;2022-09-23T04:18:44;3.73;;;2.70;;
15679;SDS011;15488;48.114;11.532;2022-09-23T04:21:12;3.50;;;2.80;;
15679;SDS011;15488;48.114;11.532;2022-09-23T04:23:39;4.30;;;2.80;;
15679;SDS011;15488;48.114;11.532;2022-09-23T04:26:08;3.10;;;2.53;;
15679;SDS011;15488;48.114;11.532;2022-09-23T04:28:35;3.87;;;2.67;;
15679;SDS011;15488;48.114;11.532;2022-09-23T04:31:03;3.30;;;2.40;;
15679;SDS011;15488;48.114;11.532;2022-09-23T04:33:31;3.40;;;2.77;;
15679;SDS011;15488;48.114;11.532;2022-09-23T04:35:59;3.10;;;2.63;;
15679;SDS011;15488;48.114;11.532;2022-09-23T04:38:27;3.47;;;2.70;;
15679;SDS011;15488;48.114;11.532;2022-09-23T04:40:54;3.63;;;2.80;;
15679;SDS011;15488;48.114;11.532;2022-09-23T04:43:23;3.00;;;2.60;;
15679;SDS011;15488;48.114;11.532;2022-09-23T04:45:57;3.37;;;2.67;;
15679;SDS011;15488;48.114;11.532;2022-09-23T04:48:25;3.37;;;2.87;;
15679;SDS011;15488;48.114;11.532;2022-09-23T04:50:53;3.33;;;2.90;;
15679;SDS011;15488;48.114;11.532;2022-09-23T04:53:20;5.00;;;3.00;;
15679;SDS011;15488;48.114;11.532;2022-09-23T04:55:48;4.30;;;2.90;;
15679;SDS011;15488;48.114;11.532;2022-09-23T04:58:16;4.30;;;2.57;;
15679;SDS011;15488;48.114;11.532;2022-09-23T05:00:47;3.43;;;2.77;;
15679;SDS011;15488;48.114;11.532;2022-09-23T05:03:14;4.23;;;3.10;;
15679;SDS011;15488;48.114;11.532;2022-09-23T05:05:41;2.83;;;2.43;;
15679;SDS011;15488;48.114;11.532;2022-09-23T05:08:10;3.13;;;2.83;;
15679;SDS011;15488;48.114;11.532;2022-09-23T05:10:37;3.03;;;2.77;;
15679;SDS011;15488;48.114;11.532;2022-09-23T05:13:04;3.40;;;3.00;;
15679;SDS011;15488;48.114;11.532;2022-09-23T05:15:32;4.43;;;2.83;;
15679;SDS011;15488;48.114;11.532;2022-09-23T05:18:01;4.03;;;2.73;;
15679;SDS011;15488;48.114;11.532;2022-09-23T05:20:28;4.63;;;3.00;;
15679;SDS011;15488;48.114;11.532;2022-09-23T05:22:56;4.20;;;2.77;;
15679;SDS011;15488;48.114;11.532;2022-09-23T05:25:23;4.47;;;2.47;;
15679;SDS011;15488;48.114;11.532;2022-09-23T05:27:51;5.17;;;2.67;;
15679;SDS011;15488;48.114;11.532;2022-09-23T05:30:18;3.67;;;2.43;;
15679;SDS011;15488;48.114;11.532;2022-09-23T05:32:45;3.13;;;2.50;;
15679;SDS011;15488;48.114;11.532;2022-09-23T05:35:14;2.90;;;2.53;;
15679;SDS011;15488;48.114;11.532;2022-09-23T05:37:42;2.40;;;2.20;;
15679;SDS011;15488;48.114;11.532;2022-09-23T05:40:09;3.93;;;2.60;;
15679;SDS011;15488;48.114;11.532;2022-09-23T05:42:36;3.00;;;2.30;;
15679;SDS011;15488;48.114;11.532;2022-09-23T05:45:04;3.00;;;2.70;;
15679;SDS011;15488;48.114;11.532;2022-09-23T05:47:32;2.87;;;2.40;;
15679;SDS011;15488;48.114;11.532;2022-09-23T05:50:00;2.87;;;2.53;;
15679;SDS011;15488;48.114;11.532;2022-09-23T05:52:29;4.60;;;3.20;;
15679;SDS011;15488;48.114;11.532;2022-09-23T05:54:58;3.07;;;2.67;;
15679;SDS011;15488;48.114;11.532;2022-09-23T05:57:27;3.90;;;2.70;;
15679;SDS011;15488;48.114;11.532;2022-09-23T05:59:54;3.93;;;2.67;;
15679;SDS011;15488;48.114;11.532;2022-09-23T06:02:22;3.20;;;2.80;;
15679;SDS011;15488;48.114;11.532;2022-09-23T06:04:49;2.70;;;2.47;;
15679;SDS011;15488;48.114;11.532;2022-09-23T06:07:16;3.60;;;2.77;;
15679;SDS011;15488;48.114;11.532;2022-09-23T06:09:45;3.30;;;2.63;;
15679;SDS011;15488;48.114;11.532;2022-09-23T06:12:12;3.20;;;2.50;;
15679;SDS011;15488;48.114;11.532;2022-09-23T06:14:40;4.00;;;2.70;;
15679;SDS011;15488;48.114;11.532;2022-09-23T06:17:07;3.93;;;2.87;;
15679;SDS011;15488;48.114;11.532;2022-09-23T06:19:35;3.30;;;2.80;;
15679;SDS011;15488;48.114;11.532;2022-09-23T06:22:02;5.40;;;2.87;;
15679;SDS011;15488;48.114;11.532;2022-09-23T06:24:29;3.77;;;3.07;;
15679;SDS011;15488;48.114;11.532;2022-09-23T06:26:59;4.07;;;2.60;;
15679;SDS011;15488;48.114;11.532;2022-09-23T06:29:27;3.83;;;2.77;;
15679;SDS011;15488;48.114;11.532;2022-09-23T06:31:56;4.17;;;2.53;;
15679;SDS011;15488;48.114;11.532;2022-09-23T06:34:24;3.93;;;2.90;;
15679;SDS011;15488;48.114;11.532;2022-09-23T06:36:51;3.87;;;2.53;;
15679;SDS011;15488;48.114;11.532;2022-09-23T06:39:19;2.50;;;2.30;;
15679;SDS011;15488;48.114;11.532;2022-09-23T06:41:47;3.60;;;2.87;;
15679;SDS011;15488;48.114;11.532;2022-09-23T06:44:15;4.50;;;2.90;;
15679;SDS011;15488;48.114;11.532;2022-09-23T06:46:43;4.03;;;3.10;;
15679;SDS011;15488;48.114;11.532;2022-09-23T06:49:10;3.60;;;2.80;;
15679;SDS011;15488;48.114;11.532;2022-09-23T06:51:38;3.13;;;2.60;;
15679;SDS011;15488;48.114;11.532;2022-09-23T06:54:05;4.47;;;2.70;;
15679;SDS011;15488;48.114;11.532;2022-09-23T06:56:33;5.33;;;3.00;;
15679;SDS011;15488;48.114;11.532;2022-09-23T06:59:00;3.40;;;2.73;;
15679;SDS011;15488;48.114;11.532;2022-09-23T07:01:29;5.97;;;2.80;;
15679;SDS011;15488;48.114;11.532;2022-09-23T07:03:57;4.67;;;3.10;;
15679;SDS011;15488;48.114;11.532;2022-09-23T07:06:25;5.53;;;3.10;;
15679;SDS011;15488;48.114;11.532;2022-09-23T07:08:53;3.50;;;3.00;;
15679;SDS011;15488;48.114;11.532;2022-09-23T07:11:20;5.97;;;3.50;;
15679;SDS011;15488;48.114;11.532;2022-09-23T07:13:47;3.93;;;3.30;;
15679;SDS011;15488;48.114;11.532;2022-09-23T07:16:15;5.63;;;3.17;;
15679;SDS011;15488;48.114;11.532;2022-09-23T07:18:44;4.33;;;3.07;;
15679;SDS011;15488;48.114;11.532;2022-09-23T07:21:12;5.83;;;3.60;;
15679;SDS011;15488;48.114;11.532;2022-09-23T07:23:41;3.77;;;3.17;;
15679;SDS011;15488;48.114;11.532;2022-09-23T07:26:10;4.47;;;3.17;;
15679;SDS011;15488;48.114;11.532;2022-09-23T07:28:37;4.43;;;3.37;;
15679;SDS011;15488;48.114;11.532;2022-09-23T07:31:06;6.60;;;3.70;;
15679;SDS011;15488;48.114;11.532;2022-09-23T07:33:35;3.70;;;3.30;;
15679;SDS011;15488;48.114;11.532;2022-09-23T07:36:06;5.13;;;3.20;;
15679;SDS011;15488;48.114;11.532;2022-09-23T07:38:35;5.27;;;3.23;;
15679;SDS011;15488;48.114;11.532;2022-09-23T07:41:04;4.37;;;3.30;;
15679;SDS011;15488;48.114;11.532;2022-09-23T07:43:32;5.77;;;3.27;;
15679;SDS011;15488;48.114;11.532;2022-09-23T07:46:03;3.90;;;2.73;;
15679;SDS011;15488;48.114;11.532;2022-09-23T07:48:32;4.07;;;2.73;;
15679;SDS011;15488;48.114;11.532;2022-09-23T07:51:06;4.67;;;3.03;;
15679;SDS011;15488;48.114;11.532;2022-09-23T07:53:34;3.73;;;2.87;;
15679;SDS011;15488;48.114;11.532;2022-09-23T07:56:02;3.30;;;2.97;;
15679;SDS011;15488;48.114;11.532;2022-09-23T07:58:30;3.17;;;2.70;;
15679;SDS011;15488;48.114;11.532;2022-09-23T08:01:04;3.40;;;2.80;;
15679;SDS011;15488;48.114;11.532;2022-09-23T08:03:34;3.43;;;2.67;;
15679;SDS011;15488;48.114;11.532;2022-09-23T08:06:03;3.03;;;2.73;;
15679;SDS011;15488;48.114;11.532;2022-09-23T08:08:34;2.63;;;2.43;;
15679;SDS011;15488;48.114;11.532;2022-09-23T08:11:04;2.50;;;2.30;;
15679;SDS011;15488;48.114;11.532;2022-09-23T08:13:34;3.00;;;2.50;;
15679;SDS011;15488;48.114;11.532;2022-09-23T08:16:02;2.97;;;2.43;;
15679;SDS011;15488;48.114;11.532;2022-09-23T08:18:30;2.60;;;2.40;;
15679;SDS011;15488;48.114;11.532;2022-09-23T08:20:58;2.60;;;2.30;;
15679;SDS011;15488;48.114;11.532;2022-09-23T08:23:27;3.17;;;2.43;;
15679;SDS011;15488;48.114;11.532;2022-09-23T08:25:57;3.83;;;2.40;;
15679;SDS011;15488;48.114;11.532;2022-09-23T08:28:26;3.90;;;2.70;;
15679;SDS011;15488;48.114;11.532;2022-09-23T08:30:53;2.50;;;2.30;;
15679;SDS011;15488;48.114;11.532;2022-09-23T08:33:21;2.53;;;1.90;;
15679;SDS011;15488;48.114;11.532;2022-09-23T08:35:49;2.17;;;1.83;;
15679;SDS011;15488;48.114;11.532;2022-09-23T08:38:16;2.23;;;2.00;;
15679;SDS011;15488;48.114;11.532;2022-09-23T08:40:47;2.40;;;1.77;;
15679;SDS011;15488;48.114;11.532;2022-09-23T08:43:18;2.20;;;2.00;;
15679;SDS011;15488;48.114;11.532;2022-09-23T08:45:50;2.00;;;1.80;;
15679;SDS011;15488;48.114;11.532;2022-09-23T08:48:21;1.60;;;1.50;;
15679;SDS011;15488;48.114;11.532;2022-09-23T08:50:54;2.27;;;1.80;;
15679;SDS011;15488;48.114;11.532;2022-09-23T08:53:29;2.13;;;1.83;;
15679;SDS011;15488;48.114;11.532;2022-09-23T08:56:03;1.80;;;1.67;;
15679;SDS011;15488;48.114;11.532;2022-09-23T08:58:36;2.37;;;2.10;;
15679;SDS011;15488;48.114;11.532;2022-09-23T09:01:16;2.43;;;1.77;;
15679;SDS011;15488;48.114;11.532;2022-09-23T09:03:48;2.30;;;2.00;;
15679;SDS011;15488;48.114;11.532;2022-09-23T09:06:19;1.97;;;1.70;;
15679;SDS011;15488;48.114;11.532;2022-09-23T09:08:54;2.87;;;1.90;;
15679;SDS011;15488;48.114;11.532;2022-09-23T09:11:27;2.10;;;1.90;;
15679;SDS011;15488;48.114;11.532;2022-09-23T09:14:09;3.27;;;2.40;;
15679;SDS011;15488;48.114;11.532;2022-09-23T09:16:45;3.80;;;3.27;;
15679;SDS011;15488;48.114;11.532;2022-09-23T09:19:24;3.97;;;3.20;;
15679;SDS011;15488;48.114;11.532;2022-09-23T09:22:18;4.20;;;3.03;;
15679;SDS011;15488;48.114;11.532;2022-09-23T09:24:48;3.70;;;3.03;;
15679;SDS011;15488;48.114;11.532;2022-09-23T09:27:22;3.07;;;2.77;;
15679;SDS011;15488;48.114;11.532;2022-09-23T09:29:50;3.33;;;3.03;;
15679;SDS011;15488;48.114;11.532;2022-09-23T09:32:23;3.00;;;2.73;;
15679;SDS011;15488;48.114;11.532;2022-09-23T09:34:58;3.20;;;2.90;;
15679;SDS011;15488;48.114;11.532;2022-09-23T09:37:35;3.67;;;3.00;;
15679;SDS011;15488;48.114;11.532;2022-09-23T09:40:11;3.97;;;3.50;;
15679;SDS011;15488;48.114;11.532;2022-09-23T09:42:44;5.07;;;3.30;;
15679;SDS011;15488;48.114;11.532;2022-09-23T09:45:14;4.17;;;3.20;;
15679;SDS011;15488;48.114;11.532;2022-09-23T09:47:50;4.13;;;3.43;;
15679;SDS011;15488;48.114;11.532;2022-09-23T09:50:41;3.00;;;2.70;;
15679;SDS011;15488;48.114;11.532;2022-09-23T09:53:14;4.53;;;3.10;;
15679;SDS011;15488;48.114;11.532;2022-09-23T09:58:38;4.70;;;2.97;;
15679;SDS011;15488;48.114;11.532;2022-09-23T10:01:17;4.90;;;2.90;;
15679;SDS011;15488;48.114;11.532;2022-09-23T10:03:45;3.67;;;3.00;;
15679;SDS011;15488;48.114;11.532;2022-09-23T10:06:15;3.60;;;2.80;;
15679;SDS011;15488;48.114;11.532;2022-09-23T10:09:01;3.53;;;2.73;;
15679;SDS011;15488;48.114;11.532;2022-09-23T10:11:34;4.40;;;3.07;;
15679;SDS011;15488;48.114;11.532;2022-09-23T10:14:05;3.43;;;3.13;;
15679;SDS011;15488;48.114;11.532;2022-09-23T10:16:38;2.77;;;2.33;;
15679;SDS011;15488;48.114;11.532;2022-09-23T10:19:11;3.43;;;2.40;;
15679;SDS011;15488;48.114;11.532;2022-09-23T10:21:49;2.80;;;2.60;;
15679;SDS011;15488;48.114;11.532;2022-09-23T10:24:19;4.93;;;2.47;;
15679;SDS011;15488;48.114;11.532;2022-09-23T10:26:51;3.63;;;2.60;;
15679;SDS011;15488;48.114;11.532;2022-09-23T10:29:23;2.70;;;2.47;;
15679;SDS011;15488;48.114;11.532;2022-09-23T10:32:12;3.90;;;3.23;;
15679;SDS011;15488;48.114;11.532;2022-09-23T10:34:45;2.60;;;2.40;;
15679;SDS011;15488;48.114;11.532;2022-09-23T10:37:17;2.77;;;2.37;;
15679;SDS011;15488;48.114;11.532;2022-09-23T10:39:51;2.77;;;2.40;;
15679;SDS011;15488;48.114;11.532;2022-09-23T10:42:43;2.60;;;2.40;;
15679;SDS011;15488;48.114;11.532;2022-09-23T10:45:39;2.77;;;2.50;;
15679;SDS011;15488;48.114;11.532;2022-09-23T10:48:29;2.63;;;2.40;;
15679;SDS011;15488;48.114;11.532;2022-09-23T10:51:06;3.47;;;3.00;;
15679;SDS011;15488;48.114;11.532;2022-09-23T10:53:41;2.67;;;2.47;;
15679;SDS011;15488;48.114;11.532;2022-09-23T10:56:21;2.87;;;2.67;;
15679;SDS011;15488;48.114;11.532;2022-09-23T11:01:57;2.37;;;2.07;;
15679;SDS011;15488;48.114;11.532;2022-09-23T11:07:38;2.90;;;2.60;;
15679;SDS011;15488;48.114;11.532;2022-09-23T11:13:18;2.90;;;2.60;;
15679;SDS011;15488;48.114;11.532;2022-09-23T11:16:00;2.40;;;2.00;;
15679;SDS011;15488;48.114;11.532;2022-09-23T11:18:46;2.37;;;1.93;;
15679;SDS011;15488;48.114;11.532;2022-09-23T11:21:32;2.43;;;2.23;;
15679;SDS011;15488;48.114;11.532;2022-09-23T11:24:20;2.30;;;2.10;;
15679;SDS011;15488;48.114;11.532;2022-09-23T11:27:00;2.07;;;1.83;;
15679;SDS011;15488;48.114;11.532;2022-09-23T11:29:46;2.30;;;2.10;;
15679;SDS011;15488;48.114;11.532;2022-09-23T11:32:34;3.80;;;2.40;;
15679;SDS011;15488;48.114;11.532;2022-09-23T11:35:30;2.43;;;2.20;;
15679;SDS011;15488;48.114;11.532;2022-09-23T11:38:03;2.50;;;2.13;;
15679;SDS011;15488;48.114;11.532;2022-09-23T11:40:35;2.87;;;2.57;;
15679;SDS011;15488;48.114;11.532;2022-09-23T11:43:04;2.40;;;2.20;;
15679;SDS011;15488;48.114;11.532;2022-09-23T11:45:40;2.40;;;2.20;;
15679;SDS011;15488;48.114;11.532;2022-09-23T11:48:12;2.63;;;2.43;;
15679;SDS011;15488;48.114;11.532;2022-09-23T11:50:45;3.80;;;2.13;;
15679;SDS011;15488;48.114;11.532;2022-09-23T11:53:19;2.67;;;2.20;;
15679;SDS011;15488;48.114;11.532;2022-09-23T11:55:55;2.60;;;2.20;;
15679;SDS011;15488;48.114;11.532;2022-09-23T11:58:29;2.37;;;2.20;;
15679;SDS011;15488;48.114;11.532;2022-09-23T12:01:04;2.60;;;2.13;;
15679;SDS011;15488;48.114;11.532;2022-09-23T12:03:38;3.23;;;2.83;;
15679;SDS011;15488;48.114;11.532;2022-09-23T12:06:14;4.87;;;2.93;;
15679;SDS011;15488;48.114;11.532;2022-09-23T12:08:45;2.90;;;2.70;;
15679;SDS011;15488;48.114;11.532;2022-09-23T12:11:19;2.40;;;2.20;;
15679;SDS011;15488;48.114;11.532;2022-09-23T12:13:54;2.80;;;2.60;;
15679;SDS011;15488;48.114;11.532;2022-09-23T12:16:44;3.07;;;2.73;;
15679;SDS011;15488;48.114;11.532;2022-09-23T12:19:28;2.70;;;2.40;;
15679;SDS011;15488;48.114;11.532;2022-09-23T12:22:13;3.23;;;2.93;;
15679;SDS011;15488;48.114;11.532;2022-09-23T12:24:53;3.30;;;2.40;;
15679;SDS011;15488;48.114;11.532;2022-09-23T12:27:27;2.70;;;2.50;;
15679;SDS011;15488;48.114;11.532;2022-09-23T12:30:01;2.70;;;2.50;;
15679;SDS011;15488;48.114;11.532;2022-09-23T12:32:30;2.90;;;2.70;;
15679;SDS011;15488;48.114;11.532;2022-09-23T12:34:58;2.90;;;2.70;;
15679;SDS011;15488;48.114;11.532;2022-09-23T12:37:30;3.03;;;2.73;;
15679;SDS011;15488;48.114;11.532;2022-09-23T12:40:01;3.90;;;3.50;;
15679;SDS011;15488;48.114;11.532;2022-09-23T12:42:33;2.83;;;2.63;;
15679;SDS011;15488;48.114;11.532;2022-09-23T12:45:16;3.15;;;2.90;;
15679;SDS011;15488;48.114;11.532;2022-09-23T12:47:58;3.67;;;2.70;;
15679;SDS011;15488;48.114;11.532;2022-09-23T12:50:47;2.80;;;2.60;;
15679;SDS011;15488;48.114;11.532;2022-09-23T12:56:26;3.40;;;3.10;;
15679;SDS011;15488;48.114;11.532;2022-09-23T12:59:20;3.42;;;3.13;;
15679;SDS011;15488;48.114;11.532;2022-09-23T13:01:50;3.15;;;2.90;;
15679;SDS011;15488;48.114;11.532;2022-09-23T13:04:31;3.42;;;3.22;;
15679;SDS011;15488;48.114;11.532;2022-09-23T13:07:26;3.63;;;3.42;;
15679;SDS011;15488;48.114;11.532;2022-09-23T13:10:02;3.15;;;2.95;;
15679;SDS011;15488;48.114;11.532;2022-09-23T13:12:34;4.13;;;3.83;;
15679;SDS011;15488;48.114;11.532;2022-09-23T13:15:11;4.00;;;3.70;;
15679;SDS011;15488;48.114;11.532;2022-09-23T13:17:43;4.07;;;3.78;;
15679;SDS011;15488;48.114;11.532;2022-09-23T13:23:01;4.18;;;3.78;;
15679;SDS011;15488;48.114;11.532;2022-09-23T13:25:34;4.50;;;4.20;;
15679;SDS011;15488;48.114;11.532;2022-09-23T13:28:11;4.25;;;4.03;;
15679;SDS011;15488;48.114;11.532;2022-09-23T13:30:49;4.88;;;4.57;;
15679;SDS011;15488;48.114;11.532;2022-09-23T13:33:19;4.85;;;4.65;;
15679;SDS011;15488;48.114;11.532;2022-09-23T13:35:59;5.15;;;4.80;;
15679;SDS011;15488;48.114;11.532;2022-09-23T13:38:30;5.25;;;4.85;;
15679;SDS011;15488;48.114;11.532;2022-09-23T13:41:01;5.20;;;4.80;;
15679;SDS011;15488;48.114;11.532;2022-09-23T13:43:34;5.65;;;5.25;;
15679;SDS011;15488;48.114;11.532;2022-09-23T13:46:06;5.00;;;4.60;;
15679;SDS011;15488;48.114;11.532;2022-09-23T13:48:38;4.43;;;4.13;;
15679;SDS011;15488;48.114;11.532;2022-09-23T13:51:09;4.43;;;4.22;;
15679;SDS011;15488;48.114;11.532;2022-09-23T13:53:41;4.43;;;4.13;;
15679;SDS011;15488;48.114;11.532;2022-09-23T13:56:17;4.75;;;4.45;;
15679;SDS011;15488;48.114;11.532;2022-09-23T13:58:45;4.95;;;4.65;;
15679;SDS011;15488;48.114;11.532;2022-09-23T14:01:20;4.43;;;4.13;;
15679;SDS011;15488;48.114;11.532;2022-09-23T14:03:54;4.30;;;4.00;;
15679;SDS011;15488;48.114;11.532;2022-09-23T14:06:21;4.57;;;4.38;;
15679;SDS011;15488;48.114;11.532;2022-09-23T14:08:51;4.63;;;4.40;;
15679;SDS011;15488;48.114;11.532;2022-09-23T14:11:21;4.65;;;4.40;;
15679;SDS011;15488;48.114;11.532;2022-09-23T14:13:54;4.90;;;4.60;;
15679;SDS011;15488;48.114;11.532;2022-09-23T14:16:22;4.88;;;4.57;;
15679;SDS011;15488;48.114;11.532;2022-09-23T14:18:54;5.57;;;5.15;;
15679;SDS011;15488;48.114;11.532;2022-09-23T14:21:25;5.72;;;5.40;;
15679;SDS011;15488;48.114;11.532;2022-09-23T14:24:04;5.53;;;5.13;;
15679;SDS011;15488;48.114;11.532;2022-09-23T14:26:40;5.00;;;4.70;;
15679;SDS011;15488;48.114;11.532;2022-09-23T14:29:12;5.25;;;4.85;;
15679;SDS011;15488;48.114;11.532;2022-09-23T14:31:42;4.97;;;4.68;;
15679;SDS011;15488;48.114;11.532;2022-09-23T14:37:32;4.72;;;4.43;;
15679;SDS011;15488;48.114;11.532;2022-09-23T14:40:24;4.95;;;4.50;;
15679;SDS011;15488;48.114;11.532;2022-09-23T14:42:57;4.65;;;4.35;;
15679;SDS011;15488;48.114;11.532;2022-09-23T14:45:29;7.30;;;6.70;;
15679;SDS011;15488;48.114;11.532;2022-09-23T14:47:59;4.65;;;4.35;;
15679;SDS011;15488;48.114;11.532;2022-09-23T14:50:30;4.85;;;4.53;;
15679;SDS011;15488;48.114;11.532;2022-09-23T14:53:30;4.60;;;4.30;;
15679;SDS011;15488;48.114;11.532;2022-09-23T14:56:12;4.00;;;3.70;;
15679;SDS011;15488;48.114;11.532;2022-09-23T14:58:52;3.55;;;3.35;;
15679;SDS011;15488;48.114;11.532;2022-09-23T15:01:22;3.40;;;3.10;;
15679;SDS011;15488;48.114;11.532;2022-09-23T15:04:08;3.13;;;2.92;;
15679;SDS011;15488;48.114;11.532;2022-09-23T15:06:41;3.20;;;2.90;;
15679;SDS011;15488;48.114;11.532;2022-09-23T15:09:15;2.95;;;2.75;;
15679;SDS011;15488;48.114;11.532;2022-09-23T15:11:51;3.17;;;2.88;;
15679;SDS011;15488;48.114;11.532;2022-09-23T15:14:25;2.90;;;2.65;;
15679;SDS011;15488;48.114;11.532;2022-09-23T15:16:54;2.70;;;2.53;;
15679;SDS011;15488;48.114;11.532;2022-09-23T15:19:30;2.90;;;2.70;;
15679;SDS011;15488;48.114;11.532;2022-09-23T15:21:59;2.80;;;2.60;;
15679;SDS011;15488;48.114;11.532;2022-09-23T15:24:33;3.15;;;2.95;;
15679;SDS011;15488;48.114;11.532;2022-09-23T15:27:08;2.88;;;2.70;;
15679;SDS011;15488;48.114;11.532;2022-09-23T15:29:46;2.72;;;2.53;;